x

South Santa Rosa Is. Ca (46069) Wave Buoy

10:50 - Sun 30th Apr 2017 All times are PDT. -7 hours from GMT.

  • Sig Wave height 5.6ft
  • Swell Direction
  • Peak Period 11s
  • Average Period 6s
  • Wind
    11mph, 13mph gusts
  • Sea Temp 53°f
  • Ar Temp 53°f
  • Sea Pressure 1019.1mb
  • South Santa Rosa Is. Ca
  • South Santa Rosa Is. Ca

More Historic Weather Station data

Upgrade to MSW Pro to gain access to the past 30 days of data for over 8000 Wavebouys and Weather Stations around the globe.

Join Pro

Comparision Forecast

View Surf forecast
   
Dom 04/30 10:50 5.5ft 11s 6s 11 13 mph 1019.1mb 53f 53f
9:50 5.5ft 11s 6s 13 16 mph 1018.6mb 53f 53f
8:50 6ft 11s 7s 13 16 mph 1018.3mb 53f 53f
7:50 5.5ft 11s 6s 16 18 mph 1017.8mb 53f 53f
5:50 6ft 11s 7s 11 13 mph 1017.2mb 52f 53f
4:50 6ft 11s 7s 13 16 mph 1017mb 52f 53f
3:50 5.5ft 11s 6s 13 16 mph 1017.2mb 52f 53f
2:50 6ft 10s 6s 16 18 mph 1017.3mb 53f 53f
1:50 6ft 11s 6s 18 22 mph 1017.4mb 52f 54f
12:50 6ft 11s 6s 20 25 mph 1017.5mb 53f 55f
Sáb 04/29 11:50 5.5ft 11s 7s 16 18 mph 1017.5mb 53f 55f
10:50 5.5ft 11s 7s 18 22 mph 1017.5mb 53f 55f
9:50 6ft 9s 7s 18 20 mph 1017.8mb 53f 55f
8:50 5ft 11s 7s 16 18 mph 1017.7mb 53f 55f
7:50 6ft 11s 7s 18 20 mph 1017.4mb 53f 55f
5:50 6.5ft 10s 8s 13 18 mph 1017.1mb 53f 55f
4:50 7ft 9s 7s 13 16 mph 1017.4mb 53f 55f
3:50 7ft 10s 7s 9 11 mph 1017.8mb 53f 55f
2:50 7ft 9s 7s 9 11 mph 1018.2mb 53f 54f
1:50 7.5ft 10s 7s 11 13 mph 1018.2mb 53f 54f
12:50 7.5ft 11s 7s 11 13 mph 1018.2mb 53f 54f
11:50 7.5ft 10s 8s 11 16 mph 1018.5mb 53f 54f
10:50 7.5ft 11s 7s 13
mph
1018.1mb 52f 54f
9:50 7.5ft 10s 8s 11 13 mph 1017.6mb 52f 53f
8:50 7.5ft 9s 8s 13 16 mph 1017.2mb 52f 53f
7:50 8ft 11s 7s 11 16 mph 1016.7mb 52f 53f
6:50 8.5ft 10s 8s 13 16 mph 1016mb 52f 52f
5:50 8ft 10s 7s 16 18 mph 1015.2mb 52f 52f
4:50 8ft 9s 7s 16 20 mph 1014.5mb 52f 52f
3:50 8.5ft 10s 7s 16 25 mph 1014.1mb 52f 53f
2:50 9ft 9s 7s 20 25 mph 1013.2mb 52f 52f
1:50 9.5ft 10s 7s 20 25 mph 1012.9mb 52f 53f
12:50 8.5ft 10s 7s 22 27 mph 1012.3mb 52f 53f
Sex 04/28 11:50 9.5ft 10s 7s 22 29 mph 1012.2mb 52f 53f
10:50 10ft 11s 7s 25 31 mph 1012.1mb 52f 53f
9:50 10ft 9s 7s 29 36 mph 1011.1mb 52f 54f
8:50 9.5ft 10s 7s 27 34 mph 1010.8mb 52f 54f
7:50 9.5ft 10s 7s 20 27 mph 1011.2mb 52f 54f
6:50 10ft 8s  -  22 29 mph 1010.9mb 52f 54f
5:50 11ft 10s 7s 25 31 mph 1010.5mb 52f 54f
4:50 12ft 9s 7s 29 34 mph 1010.1mb 52f 54f
3:50 11ft 9s 7s 31 38 mph 1010.3mb 52f 54f
2:50 11ft 9s 7s 29 36 mph 1011mb 52f 54f
1:50 11ft 10s 7s 29 36 mph 1011.3mb 52f 54f
12:50 11ft 9s 7s 29 36 mph 1011.6mb 52f 54f
11:50 10ft 10s 7s 31 38 mph 1012.1mb 52f 54f
10:50 11ft 9s 7s 31 38 mph 1012.2mb 52f 53f
9:50 11.5ft 9s 7s 31 38 mph 1011.9mb 52f 53f
8:50 12.5ft 9s 7s 31 38 mph 1011.8mb 52f 53f
7:50 12.5ft 9s 7s 31 38 mph 1011.6mb 52f 53f
6:50 13ft 10s 7s 34 40 mph 1011mb 52f 54f
3:50 12.5ft 10s 7s 31 38 mph 1010.5mb 52f 54f
2:50 13ft 9s 7s 31 38 mph 1010.3mb 52f 54f
1:50 12ft 10s 7s 34 43 mph 1010.5mb 52f 54f
12:50 12ft 10s 7s 31 38 mph 1010.9mb 52f 54f
Qui 04/27 11:50 12ft 10s 7s 29 36 mph 1011.4mb 52f 54f
10:50 12.5ft 10s 7s 29 34 mph 1011.4mb 52f 54f
9:50 11.5ft 9s 7s 31 38 mph 1011.5mb 52f 55f
8:50 12ft 9s 7s 29 36 mph 1010.8mb 52f 55f
7:50 11.5ft 8s 7s 31 38 mph 1010.5mb 52f 55f
6:50 11.5ft 9s 7s 29 36 mph 1010.6mb 52f 54f
4:50 11ft 8s 7s 29 38 mph 1010.5mb 52f 55f
3:50 11.5ft 8s 7s 29 36 mph 1011.3mb 52f 55f
2:50 10.5ft 9s 6s 31 38 mph 1011.4mb 52f 55f
1:50 10.5ft 9s 6s 29 36 mph 1011.6mb 52f 54f
12:50 11ft 9s 6s 34 40 mph 1011.6mb 52f 54f
11:50 11ft 8s 7s 31 38 mph 1012.3mb 52f 54f
10:50 10ft 9s 6s 34 38 mph 1012mb 52f 54f
9:50 11ft 9s 7s 31 38 mph 1012mb 52f 54f
8:50 11ft 9s 7s 31 38 mph 1011.9mb 52f 53f
7:50 10.5ft 8s 6s 34 43 mph 1011.8mb 52f 53f
6:50 10.5ft 8s 6s 34 43 mph 1011.5mb 52f 53f
5:50 9ft 8s 6s 31 40 mph 1011.5mb 52f 53f
4:50 9.5ft 8s 6s 34 45 mph 1011.2mb 52f 54f
3:50 9ft 8s 6s 34 43 mph 1011.4mb 52f 54f
2:50 9.5ft 7s 6s 34 40 mph 1011.9mb 52f 53f
1:50 8ft 7s 6s 27 36 mph 1013.2mb 52f 54f
12:50 8.5ft 6s 6s 29 36 mph 1013.1mb 53f 54f
Qua 04/26 11:50 8.5ft 7s 6s 31 38 mph 1012.6mb 53f 54f
10:50 8.5ft 8s 6s 31 38 mph 1012.9mb 53f 54f
9:50 8ft 7s 6s 27 34 mph 1013.1mb 53f 54f
8:50 8ft 7s 6s 29 36 mph 1012.8mb 53f 54f
7:50 8ft 7s 6s 29 36 mph 1012.6mb 53f 55f
6:50 8ft 7s 6s 29 36 mph 1012.9mb 53f 55f